Search for airport 
image banner adimage banner adimage banner ad
image banner ad

NV38 - Klas Channel 8

Located in Las Vegas, United States

ICAO - NV38, IATA -

Data provided by Airmate  

General information

Coordinates: N36°7'50" W115°9'32"
Elevation is 2100 feet MSL.
Magnetic variation is 14° East
View others Airports in Nevada

Operational data

Special qualification required
Current time UTC:
Current local time:
Weather at : KLAS - Mc Carran Intl ( 6 km )
METAR: KLAS 092256Z VRB04KT 10SM FEW250 31/M11 A2975 RMK AO2 SLP052 T03061106 $
TAF: KLAS 092057Z 0921/1024 10006KT P6SM FEW250 FM092200 23012G20KT P6SM FEW250 FM100400 22010KT P6SM FEW200 FM101500 04009KT P6SM SKC
View NOTAMs / SUP AIP / TFR affecting this airport [VIEW]
Communications frequencies: [VIEW]

Runways:

Airport contact information

Address: Las Vegas United States

Satellite view of NV38